Time;durP1;ratioP1;P1;durP2;ratioP2;P2;SDS_P1;SDS_P2;PMS_P1;PMS_P2;Temp;Humidity;BMP_temperature;BMP_pressure;BME280_temperature;BME280_humidity;BME280_pressure;Samples;Min_cycle;Max_cycle;Signal;HPM_P1;HPM_P2
2021/11/22 00:00:51;;;;;;;;;;;;;;;3.24;94.31;96185.41;5095326;28;19960;-76
2021/11/22 00:03:18;;;;;;;;;;;;;;;3.25;94.24;96192.19;5095087;28;19949;-76
2021/11/22 00:05:44;;;;;;;;;;;;;;;3.24;93.96;96185.41;5094798;28;19964;-76
2021/11/22 00:08:10;;;;;;;;;;;;;;;3.24;94.09;96188.00;5094875;28;19961;-76
2021/11/22 00:10:36;;;;;;;;;;;;;;;3.23;94.01;96189.78;5094956;28;19953;-77
2021/11/22 00:13:03;;;;;;;;;;;;;;;3.22;94.04;96185.56;5094782;28;19945;-76
2021/11/22 00:15:29;;;;;;;;;;;;;;;3.21;94.02;96185.75;5093928;28;19955;-76
2021/11/22 00:17:54;;;;;;;;;;;;;;;3.21;94.17;96189.16;5093360;28;20397;-76
2021/11/22 00:20:21;;;;;;;;;;;;;;;3.21;94.13;96186.56;5094752;28;19998;-76
2021/11/22 00:22:47;;;;;;;;;;;;;;;3.21;94.08;96196.13;5094557;28;19957;-77
2021/11/22 00:25:14;;;;;;;;;;;;;;;3.22;94.24;96197.75;5094467;28;19953;-76
2021/11/22 00:27:40;;;;;;;;;;;;;;;3.22;94.34;96200.34;5094475;28;19971;-76
2021/11/22 00:30:06;;;;;;;;;;;;;;;3.19;94.27;96192.91;5094343;28;19956;-76
2021/11/22 00:32:34;;;;;;;;;;;;;;;3.15;94.31;96207.19;5093411;28;19960;-76
2021/11/22 00:35:00;;;;;;;;;;;;;;;3.12;94.33;96212.72;5094377;28;19957;-76
2021/11/22 00:37:32;;;;;;;;;;;;;;;3.10;94.58;96212.91;5094322;28;19960;-76
2021/11/22 00:40:00;;;;;;;;;;;;;;;3.08;94.30;96212.28;5094542;28;19952;-76
2021/11/22 00:42:26;;;;;;;;;;;;;;;3.06;94.60;96216.81;5094142;28;19950;-76
2021/11/22 00:44:52;;;;;;;;;;;;;;;3.04;94.77;96218.78;5094465;28;20386;-76
2021/11/22 00:47:18;;;;;;;;;;;;;;;3.03;94.89;96209.41;5093978;28;19990;-76
2021/11/22 00:49:44;;;;;;;;;;;;;;;3.03;95.01;96212.81;5094149;28;19953;-76
2021/11/22 00:52:10;;;;;;;;;;;;;;;3.04;95.20;96218.78;5076219;28;20371;-76
2021/11/22 00:54:36;;;;;;;;;;;;;;;3.02;95.36;96224.16;5093760;28;19983;-76
2021/11/22 00:57:03;;;;;;;;;;;;;;;3.03;95.32;96222.38;5093958;28;20398;-76
2021/11/22 00:59:28;;;;;;;;;;;;;;;3.04;94.99;96235.16;5094828;28;19998;-76
2021/11/22 01:01:54;;;;;;;;;;;;;;;3.03;95.33;96223.16;5093939;28;19951;-76
2021/11/22 01:04:21;;;;;;;;;;;;;;;3.05;95.33;96230.78;5093796;28;20029;-76
2021/11/22 01:06:47;;;;;;;;;;;;;;;3.07;95.20;96230.56;5094008;28;19963;-76
2021/11/22 01:09:13;;;;;;;;;;;;;;;3.10;95.07;96230.25;5094343;28;19948;-76
2021/11/22 01:11:39;;;;;;;;;;;;;;;3.11;94.96;96226.66;5093654;28;19952;-76
2021/11/22 01:14:05;;;;;;;;;;;;;;;3.11;94.86;96235.25;5093823;28;19947;-76
2021/11/22 01:16:31;;;;;;;;;;;;;;;3.10;95.00;96232.84;5093614;28;19954;-76
2021/11/22 01:18:58;;;;;;;;;;;;;;;3.14;95.36;96239.28;5094013;28;19950;-76
2021/11/22 01:21:24;;;;;;;;;;;;;;;3.15;95.58;96233.91;5093839;28;20345;-76
2021/11/22 01:23:50;;;;;;;;;;;;;;;3.16;95.46;96232.13;5093907;28;19962;-76
2021/11/22 01:26:16;;;;;;;;;;;;;;;3.16;95.08;96232.13;5093681;28;20409;-76
2021/11/22 01:28:42;;;;;;;;;;;;;;;3.15;95.11;96233.09;5093570;28;19969;-76
2021/11/22 01:31:08;;;;;;;;;;;;;;;3.13;95.05;96235.06;5093587;28;19960;-76
2021/11/22 01:33:34;;;;;;;;;;;;;;;3.13;95.09;96232.47;5093768;28;19954;-76
2021/11/22 01:36:00;;;;;;;;;;;;;;;3.13;95.17;96240.25;5093639;28;20000;-76
2021/11/22 01:38:26;;;;;;;;;;;;;;;3.14;94.89;96239.28;5093706;28;19956;-76
2021/11/22 01:40:52;;;;;;;;;;;;;;;3.14;94.89;96234.09;5093863;28;19955;-76
2021/11/22 01:43:18;;;;;;;;;;;;;;;3.15;95.17;96241.69;5093444;28;20407;-76
2021/11/22 01:45:46;;;;;;;;;;;;;;;3.17;94.94;96249.28;5093820;28;19952;-76
2021/11/22 01:48:13;;;;;;;;;;;;;;;3.12;94.70;96247.22;5093481;28;19971;-76
2021/11/22 01:50:41;;;;;;;;;;;;;;;3.11;95.11;96250.81;5093381;28;19951;-76
2021/11/22 01:53:07;;;;;;;;;;;;;;;3.08;95.07;96245.94;5093689;28;19974;-76
2021/11/22 01:55:33;;;;;;;;;;;;;;;3.05;95.08;96246.31;5093423;28;20353;-76
2021/11/22 01:58:00;;;;;;;;;;;;;;;3.03;94.83;96243.91;5093445;28;20127;-76
2021/11/22 02:00:26;;;;;;;;;;;;;;;2.99;95.13;96237.44;5093772;28;20392;-76
2021/11/22 02:02:53;;;;;;;;;;;;;;;2.98;95.39;96245.38;5093491;28;19993;-77
2021/11/22 02:05:19;;;;;;;;;;;;;;;2.98;95.74;96250.56;5095239;28;20353;-76
2021/11/22 02:07:44;;;;;;;;;;;;;;;2.98;95.71;96258.34;5097896;28;20005;-76
2021/11/22 02:10:11;;;;;;;;;;;;;;;2.96;95.81;96253.34;5078871;28;20055;-76
2021/11/22 02:12:37;;;;;;;;;;;;;;;2.98;95.93;96258.34;5097082;28;20400;-76
2021/11/22 02:15:04;;;;;;;;;;;;;;;3.01;95.70;96258.00;5097094;28;19943;-76
2021/11/22 02:17:31;;;;;;;;;;;;;;;3.03;95.40;96261.22;5096989;28;19953;-77
2021/11/22 02:20:02;;;;;;;;;;;;;;;3.03;95.54;96258.63;5097491;28;20286;-76
2021/11/22 02:22:29;;;;;;;;;;;;;;;3.05;95.46;96261.88;5097114;28;19970;-77
2021/11/22 02:24:56;;;;;;;;;;;;;;;3.08;95.36;96265.88;5097066;28;19956;-76
2021/11/22 02:27:22;;;;;;;;;;;;;;;3.09;95.42;96265.72;5096970;28;19963;-76
2021/11/22 02:29:48;;;;;;;;;;;;;;;3.11;95.50;96268.09;5096747;28;20327;-76
2021/11/22 02:32:14;;;;;;;;;;;;;;;3.11;95.21;96263.75;5096529;28;19954;-76
2021/11/22 02:34:41;;;;;;;;;;;;;;;3.14;95.28;96267.78;5097025;28;19960;-76
2021/11/22 02:37:07;;;;;;;;;;;;;;;3.10;95.36;96269.91;5096783;28;19952;-76
2021/11/22 02:39:33;;;;;;;;;;;;;;;3.10;95.19;96271.69;5096610;28;20392;-76
2021/11/22 02:41:59;;;;;;;;;;;;;;;3.07;95.35;96270.25;5096776;28;19954;-76
2021/11/22 02:44:25;;;;;;;;;;;;;;;3.06;95.60;96276.41;5096794;28;20299;-76
2021/11/22 02:46:51;;;;;;;;;;;;;;;3.07;95.51;96274.63;5096322;28;20306;-76
2021/11/22 02:49:17;;;;;;;;;;;;;;;3.06;95.40;96279.00;5096666;28;19961;-75
2021/11/22 02:51:43;;;;;;;;;;;;;;;3.05;95.77;96280.00;5096154;28;20007;-76
2021/11/22 02:54:09;;;;;;;;;;;;;;;3.04;95.70;96276.59;5096648;28;19987;-76
2021/11/22 02:56:36;;;;;;;;;;;;;;;3.05;95.58;96277.41;5096206;28;20316;-76
2021/11/22 02:59:03;;;;;;;;;;;;;;;3.04;95.83;96276.59;5096137;28;19945;-76
2021/11/22 03:01:29;;;;;;;;;;;;;;;3.03;95.78;96282.75;5096017;28;19950;-76
2021/11/22 03:03:56;;;;;;;;;;;;;;;3.05;96.22;96282.59;5096644;28;19952;-76
2021/11/22 03:06:23;;;;;;;;;;;;;;;3.07;96.11;96287.56;5095973;28;19949;-76
2021/11/22 03:08:49;;;;;;;;;;;;;;;3.07;96.22;96293.59;5096176;28;19967;-76
2021/11/22 03:11:16;;;;;;;;;;;;;;;3.09;95.99;96296.81;5095867;28;19947;-76
2021/11/22 03:13:42;;;;;;;;;;;;;;;3.07;96.13;96293.59;5096140;28;19969;-76
2021/11/22 03:16:09;;;;;;;;;;;;;;;3.07;96.16;96296.16;5094939;28;19953;-76
2021/11/22 03:18:35;;;;;;;;;;;;;;;3.05;96.07;96290.34;5096133;28;20432;-76
2021/11/22 03:21:01;;;;;;;;;;;;;;;3.04;96.07;96292.16;5077643;28;19954;-76
2021/11/22 03:23:28;;;;;;;;;;;;;;;3.06;95.78;96297.13;5095842;28;19994;-76
2021/11/22 03:25:53;;;;;;;;;;;;;;;3.05;95.96;96305.91;5065725;28;19955;-75
2021/11/22 03:28:21;;;;;;;;;;;;;;;3.03;96.09;96294.91;5094100;28;20077;-76
2021/11/22 03:30:47;;;;;;;;;;;;;;;3.05;96.23;96301.53;5094990;28;19955;-76
2021/11/22 03:33:13;;;;;;;;;;;;;;;3.04;96.12;96310.28;5095061;28;19955;-76
2021/11/22 03:35:40;;;;;;;;;;;;;;;3.06;96.00;96312.69;5095441;28;19952;-76
2021/11/22 03:38:08;;;;;;;;;;;;;;;3.06;95.98;96310.09;5094187;28;20426;-75
2021/11/22 03:40:35;;;;;;;;;;;;;;;3.05;96.42;96309.28;5095181;28;19953;-76
2021/11/22 03:45:36;;;;;;;;;;;;;;;3.00;96.41;96310.78;5095164;28;19951;-76
2021/11/22 03:48:02;;;;;;;;;;;;;;;3.02;96.49;96311.41;5095164;28;19970;-76
2021/11/22 03:50:29;;;;;;;;;;;;;;;3.01;96.41;96313.22;5095559;28;20420;-76
2021/11/22 03:52:55;;;;;;;;;;;;;;;3.03;96.52;96315.63;5095062;28;20336;-76
2021/11/22 03:55:21;;;;;;;;;;;;;;;3.03;96.47;96319.03;5095418;28;19955;-75
2021/11/22 03:57:47;;;;;;;;;;;;;;;3.01;96.43;96318.38;5095024;28;20025;-75
2021/11/22 04:00:14;;;;;;;;;;;;;;;2.98;96.61;96318.75;5095075;28;19974;-76
2021/11/22 04:02:40;;;;;;;;;;;;;;;3.00;96.94;96321.13;5095054;28;20318;-75
2021/11/22 04:05:06;;;;;;;;;;;;;;;3.00;96.77;96334.94;5095020;28;19951;-75
2021/11/22 04:07:32;;;;;;;;;;;;;;;3.00;96.91;96329.75;5093918;28;19969;-75
2021/11/22 04:09:58;;;;;;;;;;;;;;;3.03;96.79;96337.16;5094834;28;19988;-76
2021/11/22 04:12:24;;;;;;;;;;;;;;;3.05;96.58;96334.41;5094843;28;19947;-75
2021/11/22 04:14:50;;;;;;;;;;;;;;;3.04;96.82;96331.00;5076783;28;19956;-75
2021/11/22 04:17:16;;;;;;;;;;;;;;;3.03;96.60;96328.59;5094743;28;19954;-76
2021/11/22 04:19:42;;;;;;;;;;;;;;;3.04;96.48;96345.72;5070500;28;19953;-75
2021/11/22 04:22:09;;;;;;;;;;;;;;;3.03;96.89;96346.72;5094579;28;19957;-76
2021/11/22 04:24:35;;;;;;;;;;;;;;;3.03;96.80;96354.50;5094902;28;19967;-76
2021/11/22 04:27:02;;;;;;;;;;;;;;;3.03;96.78;96349.31;5094518;28;20321;-76
2021/11/22 04:29:28;;;;;;;;;;;;;;;3.04;96.99;96356.91;5095071;28;19958;-75
2021/11/22 04:31:54;;;;;;;;;;;;;;;3.04;96.89;96359.50;5094487;28;19962;-75
2021/11/22 04:34:20;;;;;;;;;;;;;;;3.02;96.57;96361.47;5093219;28;19960;-75
2021/11/22 04:36:46;;;;;;;;;;;;;;;3.01;97.01;96366.81;5094515;28;20423;-75
2021/11/22 04:39:12;;;;;;;;;;;;;;;2.99;97.04;96363.59;5094277;28;19958;-76
2021/11/22 04:41:38;;;;;;;;;;;;;;;2.98;96.77;96361.97;5094369;28;19965;-75
2021/11/22 04:44:05;;;;;;;;;;;;;;;2.97;96.98;96360.34;5093403;28;19958;-75
2021/11/22 04:46:31;;;;;;;;;;;;;;;2.95;97.18;96373.47;5094154;28;19959;-75
2021/11/22 04:48:57;;;;;;;;;;;;;;;2.99;97.59;96382.50;5094373;28;19977;-75
2021/11/22 04:51:23;;;;;;;;;;;;;;;3.01;97.47;96390.94;5094092;28;19955;-75
2021/11/22 04:53:49;;;;;;;;;;;;;;;3.03;97.34;96388.16;5094388;28;19985;-75
2021/11/22 04:56:15;;;;;;;;;;;;;;;3.03;97.42;96381.19;5094088;28;19956;-75
2021/11/22 04:58:43;;;;;;;;;;;;;;;3.03;97.44;96388.16;5093506;28;20456;-75
2021/11/22 05:01:09;;;;;;;;;;;;;;;3.01;97.26;96390.13;5094101;28;20055;-75
2021/11/22 05:03:35;;;;;;;;;;;;;;;2.99;97.32;96387.69;5094099;28;20361;-75
2021/11/22 05:06:01;;;;;;;;;;;;;;;2.99;97.45;96392.88;5093889;28;20007;-75
2021/11/22 05:08:27;;;;;;;;;;;;;;;2.99;97.69;96390.28;5094093;28;20438;-75
2021/11/22 05:10:52;;;;;;;;;;;;;;;2.99;97.78;96399.84;5092350;28;19959;-75
2021/11/22 05:13:19;;;;;;;;;;;;;;;2.99;98.00;96403.25;5094181;28;19952;-75
2021/11/22 05:15:45;;;;;;;;;;;;;;;2.97;97.52;96407.00;5093745;28;20323;-75
2021/11/22 05:18:12;;;;;;;;;;;;;;;2.95;97.59;96404.56;5093806;28;20319;-75
2021/11/22 05:20:39;;;;;;;;;;;;;;;2.93;97.88;96406.50;5093680;28;19962;-75
2021/11/22 05:23:06;;;;;;;;;;;;;;;2.93;97.78;96405.72;5093687;28;19960;-75
2021/11/22 05:25:33;;;;;;;;;;;;;;;2.95;98.10;96409.75;5092977;28;19956;-75
2021/11/22 05:27:59;;;;;;;;;;;;;;;2.94;98.48;96413.31;5093629;28;20447;-75
2021/11/22 05:30:26;;;;;;;;;;;;;;;2.95;98.14;96409.75;5093654;28;19957;-75
2021/11/22 05:32:53;;;;;;;;;;;;;;;2.96;98.13;96423.50;5093594;28;19954;-75
2021/11/22 05:35:18;;;;;;;;;;;;;;;2.96;97.97;96421.72;5093682;28;19952;-75
2021/11/22 05:37:44;;;;;;;;;;;;;;;2.98;98.08;96429.31;5093319;28;19964;-75
2021/11/22 05:40:11;;;;;;;;;;;;;;;2.99;98.41;96428.34;5095734;28;20420;-75
2021/11/22 05:42:37;;;;;;;;;;;;;;;3.01;97.92;96427.19;5097599;28;19963;-76
2021/11/22 05:45:04;;;;;;;;;;;;;;;3.03;98.10;96434.81;5097923;28;19954;-75
2021/11/22 05:47:30;;;;;;;;;;;;;;;3.03;98.27;96433.00;5097459;28;19954;-75
2021/11/22 05:50:03;;;;;;;;;;;;;;;3.02;98.14;96426.22;5097516;28;19959;-75
2021/11/22 05:52:30;;;;;;;;;;;;;;;3.04;98.13;96442.41;5097447;28;20499;-75
2021/11/22 05:54:56;;;;;;;;;;;;;;;3.04;97.84;96441.59;5097289;28;20302;-75
2021/11/22 05:57:23;;;;;;;;;;;;;;;3.03;97.90;96433.00;5097872;28;19961;-75
2021/11/22 05:59:49;;;;;;;;;;;;;;;3.02;97.88;96439.19;5097425;28;19961;-75
2021/11/22 06:02:15;;;;;;;;;;;;;;;3.01;97.98;96444.53;5096426;28;19965;-76
2021/11/22 06:04:41;;;;;;;;;;;;;;;3.00;98.12;96454.09;5097338;28;19959;-75
2021/11/22 06:07:07;;;;;;;;;;;;;;;3.03;98.27;96456.31;5097146;28;20345;-75
2021/11/22 06:09:33;;;;;;;;;;;;;;;3.03;98.07;96455.53;5097596;28;20323;-75
2021/11/22 06:11:59;;;;;;;;;;;;;;;3.03;98.23;96465.88;5078829;28;19951;-75
2021/11/22 06:14:25;;;;;;;;;;;;;;;3.02;97.94;96461.66;5097052;28;19967;-75
2021/11/22 06:16:51;;;;;;;;;;;;;;;3.01;98.64;96468.63;5097097;28;20016;-75
2021/11/22 06:19:17;;;;;;;;;;;;;;;3.04;98.35;96468.31;5097035;28;19954;-75
2021/11/22 06:21:43;;;;;;;;;;;;;;;3.03;98.19;96476.25;5096830;28;19965;-75
2021/11/22 06:24:09;;;;;;;;;;;;;;;3.02;98.41;96467.69;5096674;28;19957;-76
2021/11/22 06:26:35;;;;;;;;;;;;;;;3.03;98.49;96466.69;5096999;28;19961;-75
2021/11/22 06:29:02;;;;;;;;;;;;;;;3.01;98.30;96473.03;5097056;28;19972;-75
2021/11/22 06:31:28;;;;;;;;;;;;;;;3.01;98.52;96480.78;5096881;28;19959;-75
2021/11/22 06:33:54;;;;;;;;;;;;;;;2.99;98.92;96477.56;5096864;28;19956;-75
2021/11/22 06:36:20;;;;;;;;;;;;;;;2.99;98.88;96486.13;5096581;28;19951;-75
2021/11/22 06:38:45;;;;;;;;;;;;;;;2.99;98.46;96496.50;5097145;28;19965;-75
2021/11/22 06:41:11;;;;;;;;;;;;;;;2.99;98.73;96490.50;5096367;28;19950;-75
2021/11/22 06:43:37;;;;;;;;;;;;;;;2.98;98.42;96492.31;5096520;28;19956;-75
2021/11/22 06:46:03;;;;;;;;;;;;;;;2.97;98.66;96493.28;5096763;28;19956;-75
2021/11/22 06:48:29;;;;;;;;;;;;;;;2.96;99.13;96494.25;5096171;28;20347;-75
2021/11/22 06:50:55;;;;;;;;;;;;;;;2.98;99.46;96505.25;5094854;28;19960;-75
2021/11/22 06:53:22;;;;;;;;;;;;;;;3.02;99.25;96503.13;5095761;28;20438;-75
2021/11/22 06:55:48;;;;;;;;;;;;;;;3.04;98.98;96507.19;5096365;28;19957;-75
2021/11/22 06:58:14;;;;;;;;;;;;;;;3.06;98.83;96507.00;5096507;28;20326;-75
2021/11/22 07:00:40;;;;;;;;;;;;;;;3.05;98.69;96519.16;5096035;28;19948;-75
2021/11/22 07:03:06;;;;;;;;;;;;;;;3.04;98.83;96517.53;5096204;28;19975;-75
2021/11/22 07:05:32;;;;;;;;;;;;;;;3.04;98.90;96524.50;5096026;28;19949;-75
2021/11/22 07:07:58;;;;;;;;;;;;;;;3.06;98.89;96525.13;5095845;28;19977;-75
2021/11/22 07:10:24;;;;;;;;;;;;;;;3.03;99.44;96526.28;5096434;28;19980;-75
2021/11/22 07:12:51;;;;;;;;;;;;;;;3.03;99.10;96531.47;5096169;28;20401;-75
2021/11/22 07:15:20;;;;;;;;;;;;;;;3.04;99.34;96529.66;5096075;28;19953;-75
2021/11/22 07:17:50;;;;;;;;;;;;;;;3.04;99.37;96542.63;5095851;28;19962;-75
2021/11/22 07:20:17;;;;;;;;;;;;;;;3.04;99.04;96540.88;5095710;28;19961;-76
2021/11/22 07:22:43;;;;;;;;;;;;;;;3.05;99.01;96539.88;5094815;28;19962;-76
2021/11/22 07:25:09;;;;;;;;;;;;;;;3.08;99.71;96553.47;5095729;28;19954;-75
2021/11/22 07:27:35;;;;;;;;;;;;;;;3.08;99.81;96553.47;5095612;28;19959;-75
2021/11/22 07:30:03;;;;;;;;;;;;;;;3.08;99.63;96554.25;5095595;28;19982;-76
2021/11/22 07:32:29;;;;;;;;;;;;;;;3.09;99.81;96558.50;5095505;28;19955;-75
2021/11/22 07:34:55;;;;;;;;;;;;;;;3.11;100.00;96558.31;5095655;28;20015;-75
2021/11/22 07:37:22;;;;;;;;;;;;;;;3.12;99.89;96563.31;5095520;28;19954;-75
2021/11/22 07:39:48;;;;;;;;;;;;;;;3.13;99.49;96566.72;5095687;28;19965;-75
2021/11/22 07:42:14;;;;;;;;;;;;;;;3.15;99.72;96572.53;5095430;28;19950;-75
2021/11/22 07:44:40;;;;;;;;;;;;;;;3.16;99.61;96566.41;5095236;28;19971;-76
2021/11/22 07:47:06;;;;;;;;;;;;;;;3.18;99.95;96585.97;5095696;28;20324;-75
2021/11/22 07:49:32;;;;;;;;;;;;;;;3.18;99.74;96582.59;5095259;28;19973;-75
2021/11/22 07:51:58;;;;;;;;;;;;;;;3.20;99.75;96581.44;5095253;28;19958;-75
2021/11/22 07:54:24;;;;;;;;;;;;;;;3.21;100.00;96582.22;5095133;28;20470;-75
2021/11/22 07:56:51;;;;;;;;;;;;;;;3.21;100.00;96592.59;5095195;28;20333;-75
2021/11/22 07:59:19;;;;;;;;;;;;;;;3.20;100.00;96591.78;5094934;28;19952;-75
2021/11/22 08:01:45;;;;;;;;;;;;;;;3.23;100.00;96588.06;5095062;28;19951;-75
2021/11/22 08:04:15;;;;;;;;;;;;;;;3.24;100.00;96600.84;5094754;28;19975;-75
2021/11/22 08:06:46;;;;;;;;;;;;;;;3.24;100.00;96600.84;5094925;28;19958;-75
2021/11/22 08:09:15;;;;;;;;;;;;;;;3.24;99.94;96606.03;5093741;28;20466;-75
2021/11/22 08:14:25;;;;;;;;;;;;;;;3.28;100.00;96613.50;5094764;28;19962;-75
2021/11/22 08:16:51;;;;;;;;;;;;;;;3.30;100.00;96614.94;5094624;28;19987;-75
2021/11/22 08:19:19;;;;;;;;;;;;;;;3.34;100.00;96615.38;5094976;28;19955;-75
2021/11/22 08:21:45;;;;;;;;;;;;;;;3.36;100.00;96626.41;5094783;28;19973;-75
2021/11/22 08:24:11;;;;;;;;;;;;;;;3.39;100.00;96623.50;5094736;28;20502;-76
2021/11/22 08:26:37;;;;;;;;;;;;;;;3.39;100.00;96624.28;5094647;28;19954;-76
2021/11/22 08:29:03;;;;;;;;;;;;;;;3.40;100.00;96625.09;5094301;28;19972;-76
2021/11/22 08:31:29;;;;;;;;;;;;;;;3.43;100.00;96630.75;5094491;28;20004;-76
2021/11/22 08:33:55;;;;;;;;;;;;;;;3.45;100.00;96636.59;5094810;28;19962;-76
2021/11/22 08:36:21;;;;;;;;;;;;;;;3.49;100.00;96644.03;5093543;28;20324;-76
2021/11/22 08:38:49;;;;;;;;;;;;;;;3.47;100.00;96631.22;5094202;28;20321;-76
2021/11/22 08:41:15;;;;;;;;;;;;;;;3.50;100.00;96641.25;5094350;28;19956;-76
2021/11/22 08:43:41;;;;;;;;;;;;;;;3.52;100.00;96643.69;5094269;28;20350;-76
2021/11/22 08:46:07;;;;;;;;;;;;;;;3.52;100.00;96639.31;5076754;28;19969;-76
2021/11/22 08:48:33;;;;;;;;;;;;;;;3.54;100.00;96647.72;5094265;28;19991;-76
2021/11/22 08:51:02;;;;;;;;;;;;;;;3.57;100.00;96647.41;5094317;28;19949;-76
2021/11/22 08:53:28;;;;;;;;;;;;;;;3.59;100.00;96650.63;5094233;28;19979;-76
2021/11/22 08:55:54;;;;;;;;;;;;;;;3.62;100.00;96652.88;5093862;28;19957;-76
2021/11/22 08:58:20;;;;;;;;;;;;;;;3.66;100.00;96655.94;5093641;28;19964;-76
2021/11/22 09:00:46;;;;;;;;;;;;;;;3.67;100.00;96657.56;5094149;28;19951;-76
2021/11/22 09:03:12;;;;;;;;;;;;;;;3.91;100.00;96667.03;5093177;28;19949;-74
2021/11/22 09:05:38;;;;;;;;;;;;;;;4.50;100.00;96663.09;5093898;28;20333;-76
2021/11/22 09:08:04;;;;;;;;;;;;;;;4.70;100.00;96661.59;5093706;28;19951;-76
2021/11/22 09:10:30;;;;;;;;;;;;;;;4.62;100.00;96674.66;5093725;28;19965;-77
2021/11/22 09:12:56;;;;;;;;;;;;;;;4.51;99.42;96678.47;5071650;28;19953;-76
2021/11/22 09:15:23;;;;;;;;;;;;;;;4.36;99.08;96675.81;5092954;28;19968;-76
2021/11/22 09:17:49;;;;;;;;;;;;;;;4.27;99.32;96680.25;5093695;28;19961;-76
2021/11/22 09:20:15;;;;;;;;;;;;;;;4.19;99.88;96697.69;5093534;28;19977;-76
2021/11/22 09:22:41;;;;;;;;;;;;;;;4.12;100.00;96689.78;5093750;28;19959;-76
2021/11/22 09:25:08;;;;;;;;;;;;;;;4.09;100.00;96697.09;5093705;28;19966;-76
2021/11/22 09:27:34;;;;;;;;;;;;;;;4.04;100.00;96692.41;5093511;28;19959;-76
2021/11/22 09:30:00;;;;;;;;;;;;;;;4.01;100.00;96698.75;5093791;28;19966;-76
2021/11/22 09:32:26;;;;;;;;;;;;;;;4.02;100.00;96702.94;5093716;28;19978;-76
2021/11/22 09:34:52;;;;;;;;;;;;;;;4.03;100.00;96703.75;5093684;28;20013;-77
2021/11/22 09:37:18;;;;;;;;;;;;;;;4.02;100.00;96702.16;5093621;28;20395;-78
2021/11/22 09:39:44;;;;;;;;;;;;;;;4.03;100.00;96703.75;5093466;28;19968;-76
2021/11/22 09:42:10;;;;;;;;;;;;;;;4.05;100.00;96707.81;5093776;28;19958;-76
2021/11/22 09:44:36;;;;;;;;;;;;;;;4.04;100.00;96705.38;5093312;28;19953;-76
2021/11/22 09:47:02;;;;;;;;;;;;;;;4.03;100.00;96708.94;5093635;28;19958;-77
2021/11/22 09:49:28;;;;;;;;;;;;;;;4.03;100.00;96709.78;5093367;28;19957;-76
2021/11/22 09:51:55;;;;;;;;;;;;;;;4.04;100.00;96710.56;5093439;28;19953;-76
2021/11/22 09:54:21;;;;;;;;;;;;;;;4.05;100.00;96712.19;5064974;28;19975;-76
2021/11/22 09:56:49;;;;;;;;;;;;;;;4.05;100.00;96709.59;5066280;28;19960;-76
2021/11/22 09:59:16;;;;;;;;;;;;;;;4.06;100.00;96713.81;5062045;28;19952;-76
2021/11/22 10:01:43;;;;;;;;;;;;;;;4.06;100.00;96714.63;5063782;28;19954;-77
2021/11/22 10:04:11;;;;;;;;;;;;;;;4.07;100.00;96718.84;5060746;28;20329;-77
2021/11/22 10:06:47;;;;;;;;;;;;;;;4.08;100.00;96719.63;5063690;28;19955;-77
2021/11/22 10:09:35;;;;;;;;;;;;;;;4.09;100.00;96717.84;5068246;28;19968;-76
2021/11/22 10:12:03;;;;;;;;;;;;;;;4.11;100.00;96724.47;5066413;28;19962;-76
2021/11/22 10:14:34;;;;;;;;;;;;;;;4.13;100.00;96724.31;5060566;28;19954;-76
2021/11/22 10:17:00;;;;;;;;;;;;;;;4.14;100.00;96726.75;5060253;28;19964;-77
2021/11/22 10:19:26;;;;;;;;;;;;;;;4.14;100.00;96721.56;5062560;28;19951;-76
2021/11/22 10:21:52;;;;;;;;;;;;;;;4.16;100.00;96729.97;5064351;28;20010;-76
2021/11/22 10:24:18;;;;;;;;;;;;;;;4.19;100.00;96734.81;5060333;28;20027;-76
2021/11/22 10:26:48;;;;;;;;;;;;;;;4.20;100.00;96730.44;5064066;28;20015;-76
2021/11/22 10:29:32;;;;;;;;;;;;;;;4.22;100.00;96726.72;5062659;28;19972;-77
2021/11/22 10:31:59;;;;;;;;;;;;;;;4.26;100.00;96727.97;5048098;28;19943;-77
2021/11/22 10:34:26;;;;;;;;;;;;;;;4.29;100.00;96726.03;5065694;28;20396;-76
2021/11/22 10:36:59;;;;;;;;;;;;;;;4.34;100.00;96724.50;5069441;28;19963;-76
2021/11/22 10:39:28;;;;;;;;;;;;;;;4.39;100.00;96721.41;5067926;28;19960;-76
2021/11/22 10:41:55;;;;;;;;;;;;;;;4.39;100.00;96732.63;5065805;28;20037;-76
2021/11/22 10:44:21;;;;;;;;;;;;;;;4.38;100.00;96722.41;5064271;28;19960;-76
2021/11/22 10:46:54;;;;;;;;;;;;;;;4.37;100.00;96731.97;5070289;28;19954;-76
2021/11/22 10:49:29;;;;;;;;;;;;;;;4.37;100.00;96725.97;5067620;28;19967;-76
2021/11/22 10:52:06;;;;;;;;;;;;;;;4.38;100.00;96728.38;5067053;28;19962;-76
2021/11/22 10:54:36;;;;;;;;;;;;;;;4.38;100.00;96727.59;5083460;28;20312;-76
2021/11/22 10:57:10;;;;;;;;;;;;;;;4.38;100.00;96722.41;5096399;28;19951;-76
2021/11/22 10:59:36;;;;;;;;;;;;;;;4.38;100.00;96730.19;5078339;28;19973;-76
2021/11/22 11:02:02;;;;;;;;;;;;;;;4.38;100.00;96728.38;5096170;28;20126;-76
2021/11/22 11:04:31;;;;;;;;;;;;;;;4.39;100.00;96732.63;5095128;28;19968;-76
2021/11/22 11:06:57;;;;;;;;;;;;;;;4.42;100.00;96724.47;5096081;28;19957;-76
2021/11/22 11:09:31;;;;;;;;;;;;;;;4.45;100.00;96728.50;5095395;28;20370;-76
2021/11/22 11:12:02;;;;;;;;;;;;;;;4.45;100.00;96731.94;5096337;28;19970;-76
2021/11/22 11:14:29;;;;;;;;;;;;;;;4.44;100.00;96737.28;5095896;28;19955;-76
2021/11/22 11:17:07;;;;;;;;;;;;;;;4.46;100.00;96748.31;5095992;28;20332;-76
2021/11/22 11:19:33;;;;;;;;;;;;;;;4.46;100.00;96743.91;5064791;28;19964;-76
2021/11/22 11:22:01;;;;;;;;;;;;;;;4.46;100.00;96749.13;5095890;28;20345;-76
2021/11/22 11:24:27;;;;;;;;;;;;;;;4.48;100.00;96754.16;5095572;28;20434;-76
2021/11/22 11:26:53;;;;;;;;;;;;;;;4.46;100.00;96751.72;5095867;28;19965;-76
2021/11/22 11:29:18;;;;;;;;;;;;;;;4.46;99.92;96751.72;5095580;28;19982;-76
2021/11/22 11:31:44;;;;;;;;;;;;;;;4.45;99.92;96760.50;5095470;28;19962;-76
2021/11/22 11:34:12;;;;;;;;;;;;;;;4.46;100.00;96764.69;5095937;28;19961;-76
2021/11/22 11:36:56;;;;;;;;;;;;;;;4.45;99.83;96759.66;5095601;28;19950;-76
2021/11/22 11:39:31;;;;;;;;;;;;;;;4.43;99.25;96753.84;5095339;28;19951;-76
2021/11/22 11:42:12;;;;;;;;;;;;;;;4.45;99.86;96767.44;5095448;28;19963;-76
2021/11/22 11:44:57;;;;;;;;;;;;;;;4.45;100.00;96764.84;5095655;28;19947;-76
2021/11/22 11:47:36;;;;;;;;;;;;;;;4.46;100.00;96764.69;5095423;28;19974;-76
2021/11/22 11:50:21;;;;;;;;;;;;;;;4.47;100.00;96768.94;5095337;28;19973;-76
2021/11/22 11:52:58;;;;;;;;;;;;;;;4.48;100.00;96769.72;5094855;28;19956;-76
2021/11/22 11:55:25;;;;;;;;;;;;;;;4.47;100.00;96762.91;5095075;28;19962;-76
2021/11/22 11:58:11;;;;;;;;;;;;;;;4.47;100.00;96771.53;5095469;28;19984;-76
2021/11/22 12:00:49;;;;;;;;;;;;;;;4.48;100.00;96764.53;5073747;28;19997;-76
2021/11/22 12:03:15;;;;;;;;;;;;;;;4.46;100.00;96767.28;5060599;28;20418;-76
2021/11/22 12:05:45;;;;;;;;;;;;;;;4.44;100.00;96765.84;5094971;28;19954;-75
2021/11/22 12:08:30;;;;;;;;;;;;;;;4.44;100.00;96773.66;5095078;28;19968;-76
2021/11/22 12:10:58;;;;;;;;;;;;;;;4.40;100.00;96767.16;5066340;28;19977;-76
2021/11/22 12:13:24;;;;;;;;;;;;;;;4.38;100.00;96769.13;5094930;28;19961;-76
2021/11/22 12:15:54;;;;;;;;;;;;;;;4.37;100.00;96773.53;5094647;28;19947;-76
2021/11/22 12:18:31;;;;;;;;;;;;;;;4.35;100.00;96778.06;5095177;28;20405;-76
2021/11/22 12:21:00;;;;;;;;;;;;;;;4.34;100.00;96776.44;5094719;28;19949;-76
2021/11/22 12:23:28;;;;;;;;;;;;;;;4.32;100.00;96786.19;5094393;28;19956;-76
2021/11/22 12:25:57;;;;;;;;;;;;;;;4.32;100.00;96783.59;5094613;28;19959;-76
2021/11/22 12:28:23;;;;;;;;;;;;;;;4.31;100.00;96781.19;5094577;28;19957;-76
2021/11/22 12:31:11;;;;;;;;;;;;;;;4.30;100.00;96788.16;5094492;28;20319;-76
2021/11/22 12:33:42;;;;;;;;;;;;;;;4.29;100.00;96783.16;5094333;28;20320;-76
2021/11/22 12:36:08;;;;;;;;;;;;;;;4.29;100.00;96783.94;5094459;28;20330;-76
2021/11/22 12:38:35;;;;;;;;;;;;;;;4.27;100.00;96794.50;5094090;28;19966;-76
2021/11/22 12:41:03;;;;;;;;;;;;;;;4.25;100.00;96791.25;5094406;28;19956;-76
2021/11/22 12:43:38;;;;;;;;;;;;;;;4.24;100.00;96788.81;5093978;28;19970;-76
2021/11/22 12:46:05;;;;;;;;;;;;;;;4.27;100.00;96797.09;5094466;28;19952;-76
2021/11/22 12:48:36;;;;;;;;;;;;;;;4.33;100.00;96792.22;5093717;28;19955;-76
2021/11/22 12:51:07;;;;;;;;;;;;;;;4.41;100.00;96792.97;5093781;28;19965;-76
2021/11/22 12:53:33;;;;;;;;;;;;;;;4.49;100.00;96799.91;5093870;28;20034;-76
2021/11/22 12:55:59;;;;;;;;;;;;;;;4.59;100.00;96797.91;5094241;28;19962;-76
2021/11/22 12:58:26;;;;;;;;;;;;;;;4.56;100.00;96798.25;5094310;28;19958;-76